Prairieton, Indiana
Current Conditions -  °F | °C
As of 5:28 PM on Sunday 25 Jan 2015 (Local Time) from KHUF Reporting Station
Light Rain Light Rain  
Wind Chill: 33°   Ceiling: 700
Heat Index: 38°   Visibility: 2.5mi
Dew Point: 36°   Wind: 7mph
Humidity: 93%   Direction: 30°NNE
Pressure: 29.67"   Gusts: NA
Location:  39.37°N, 87.47°W
Report Text: KHUF 252228Z 03006KT 2 1/2SM -RA BR BKN007 OVC014 03/02 A2967 RMK AO2 CIG 005V010 P0002 T00330022
Loading
Personal Weather Stations






























Interactive Weather Map New forecast layout! Learn more

10-Day Weather Forecast

Advertisements
Track Severe Weather on mobile